sensor_id;sensor_type;location;lat;lon;timestamp;pressure;altitude;pressure_sealevel;temperature;humidity
11710;BME280;5911;51.036;6.972;2022-12-11T00:00:51;100340.84;;;3.71;100.00
11710;BME280;5911;51.036;6.972;2022-12-11T00:03:19;100334.59;;;3.73;100.00
11710;BME280;5911;51.036;6.972;2022-12-11T00:05:46;100340.44;;;3.63;100.00
11710;BME280;5911;51.036;6.972;2022-12-11T00:08:14;100337.69;;;3.66;100.00
11710;BME280;5911;51.036;6.972;2022-12-11T00:10:46;100331.69;;;3.64;100.00
11710;BME280;5911;51.036;6.972;2022-12-11T00:13:14;100339.16;;;3.70;100.00
11710;BME280;5911;51.036;6.972;2022-12-11T00:15:44;100338.13;;;3.72;100.00
11710;BME280;5911;51.036;6.972;2022-12-11T00:18:12;100350.28;;;3.58;100.00
11710;BME280;5911;51.036;6.972;2022-12-11T00:20:40;100347.28;;;3.49;100.00
11710;BME280;5911;51.036;6.972;2022-12-11T00:23:08;100336.88;;;3.49;100.00
11710;BME280;5911;51.036;6.972;2022-12-11T00:25:40;100342.47;;;3.58;100.00
11710;BME280;5911;51.036;6.972;2022-12-11T00:28:08;100339.88;;;3.58;100.00
11710;BME280;5911;51.036;6.972;2022-12-11T00:30:37;100336.16;;;3.62;100.00
11710;BME280;5911;51.036;6.972;2022-12-11T00:33:07;100334.66;;;3.58;100.00
11710;BME280;5911;51.036;6.972;2022-12-11T00:35:37;100338.84;;;3.60;100.00
11710;BME280;5911;51.036;6.972;2022-12-11T00:38:05;100333.97;;;3.54;100.00
11710;BME280;5911;51.036;6.972;2022-12-11T00:40:34;100335.94;;;3.50;100.00
11710;BME280;5911;51.036;6.972;2022-12-11T00:43:02;100339.03;;;3.57;100.00
11710;BME280;5911;51.036;6.972;2022-12-11T00:45:33;100340.09;;;3.69;100.00
11710;BME280;5911;51.036;6.972;2022-12-11T00:48:02;100336.72;;;3.67;100.00
11710;BME280;5911;51.036;6.972;2022-12-11T00:50:31;100336.25;;;3.60;100.00
11710;BME280;5911;51.036;6.972;2022-12-11T00:52:59;100329.84;;;3.66;100.00
11710;BME280;5911;51.036;6.972;2022-12-11T00:55:27;100324.44;;;3.69;100.00
11710;BME280;5911;51.036;6.972;2022-12-11T00:57:56;100326.56;;;3.62;100.00
11710;BME280;5911;51.036;6.972;2022-12-11T01:00:24;100323.53;;;3.54;100.00
11710;BME280;5911;51.036;6.972;2022-12-11T01:02:52;100325.91;;;3.59;100.00
11710;BME280;5911;51.036;6.972;2022-12-11T01:05:19;100319.00;;;3.58;100.00
11710;BME280;5911;51.036;6.972;2022-12-11T01:07:49;100323.97;;;3.62;100.00
11710;BME280;5911;51.036;6.972;2022-12-11T01:10:16;100323.22;;;3.60;100.00
11710;BME280;5911;51.036;6.972;2022-12-11T01:12:49;100327.41;;;3.63;100.00
11710;BME280;5911;51.036;6.972;2022-12-11T01:15:18;100326.28;;;3.67;100.00
11710;BME280;5911;51.036;6.972;2022-12-11T01:17:45;100322.88;;;3.66;100.00
11710;BME280;5911;51.036;6.972;2022-12-11T01:20:13;100334.47;;;3.61;100.00
11710;BME280;5911;51.036;6.972;2022-12-11T01:22:41;100336.16;;;3.62;100.00
11710;BME280;5911;51.036;6.972;2022-12-11T01:25:10;100340.97;;;3.53;100.00
11710;BME280;5911;51.036;6.972;2022-12-11T01:27:39;100347.53;;;3.61;100.00
11710;BME280;5911;51.036;6.972;2022-12-11T01:30:08;100345.91;;;3.58;100.00
11710;BME280;5911;51.036;6.972;2022-12-11T01:32:36;100334.66;;;3.58;100.00
11710;BME280;5911;51.036;6.972;2022-12-11T01:35:04;100330.94;;;3.62;100.00
11710;BME280;5911;51.036;6.972;2022-12-11T01:37:32;100323.88;;;3.64;100.00
11710;BME280;5911;51.036;6.972;2022-12-11T01:40:00;100331.03;;;3.60;100.00
11710;BME280;5911;51.036;6.972;2022-12-11T01:42:30;100335.50;;;3.58;100.00
11710;BME280;5911;51.036;6.972;2022-12-11T01:45:29;100324.13;;;3.59;100.00
11710;BME280;5911;51.036;6.972;2022-12-11T01:48:01;100322.03;;;3.66;100.00
11710;BME280;5911;51.036;6.972;2022-12-11T01:50:32;100319.00;;;3.58;100.00
11710;BME280;5911;51.036;6.972;2022-12-11T01:53:02;100317.16;;;3.60;100.00
11710;BME280;5911;51.036;6.972;2022-12-11T01:55:32;100322.19;;;3.63;100.00
11710;BME280;5911;51.036;6.972;2022-12-11T01:58:02;100320.50;;;3.62;100.00
11710;BME280;5911;51.036;6.972;2022-12-11T02:00:30;100322.38;;;3.60;100.00
11710;BME280;5911;51.036;6.972;2022-12-11T02:02:58;100322.88;;;3.66;100.00
11710;BME280;5911;51.036;6.972;2022-12-11T02:05:26;100323.25;;;3.74;100.00
11710;BME280;5911;51.036;6.972;2022-12-11T02:07:56;100314.84;;;3.69;100.00
11710;BME280;5911;51.036;6.972;2022-12-11T02:10:35;100313.16;;;3.68;100.00
11710;BME280;5911;51.036;6.972;2022-12-11T02:13:12;100311.31;;;3.70;100.00
11710;BME280;5911;51.036;6.972;2022-12-11T02:15:47;100311.38;;;3.69;100.00
11710;BME280;5911;51.036;6.972;2022-12-11T02:18:21;100311.59;;;3.66;100.00
11710;BME280;5911;51.036;6.972;2022-12-11T02:20:57;100306.19;;;3.69;100.00
11710;BME280;5911;51.036;6.972;2022-12-11T02:23:42;100303.47;;;3.70;100.00
11710;BME280;5911;51.036;6.972;2022-12-11T02:29:10;100299.81;;;3.59;100.00
11710;BME280;5911;51.036;6.972;2022-12-11T02:31:46;100306.56;;;3.63;100.00
11710;BME280;5911;51.036;6.972;2022-12-11T02:34:20;100296.28;;;3.60;100.00
11710;BME280;5911;51.036;6.972;2022-12-11T02:36:51;100296.13;;;3.63;100.00
11710;BME280;5911;51.036;6.972;2022-12-11T02:39:22;100297.59;;;3.67;100.00
11710;BME280;5911;51.036;6.972;2022-12-11T02:41:52;100300.97;;;3.69;100.00
11710;BME280;5911;51.036;6.972;2022-12-11T02:44:25;100292.59;;;3.64;100.00
11710;BME280;5911;51.036;6.972;2022-12-11T02:46:53;100301.03;;;3.67;100.00
11710;BME280;5911;51.036;6.972;2022-12-11T02:49:22;100300.50;;;3.62;100.00
11710;BME280;5911;51.036;6.972;2022-12-11T02:51:51;100296.13;;;3.63;100.00
11710;BME280;5911;51.036;6.972;2022-12-11T02:54:24;100296.78;;;3.66;100.00
11710;BME280;5911;51.036;6.972;2022-12-11T02:56:58;100303.03;;;3.64;100.00
11710;BME280;5911;51.036;6.972;2022-12-11T02:59:33;100288.38;;;3.61;100.00
11710;BME280;5911;51.036;6.972;2022-12-11T03:02:02;100291.25;;;3.57;100.00
11710;BME280;5911;51.036;6.972;2022-12-11T03:04:33;100284.00;;;3.62;100.00
11710;BME280;5911;51.036;6.972;2022-12-11T03:07:03;100284.00;;;3.62;100.00
11710;BME280;5911;51.036;6.972;2022-12-11T03:09:38;100283.75;;;3.66;100.00
11710;BME280;5911;51.036;6.972;2022-12-11T03:12:06;100281.41;;;3.62;100.00
11710;BME280;5911;51.036;6.972;2022-12-11T03:14:38;100284.84;;;3.62;100.00
11710;BME280;5911;51.036;6.972;2022-12-11T03:17:11;100276.81;;;3.51;100.00
11710;BME280;5911;51.036;6.972;2022-12-11T03:19:42;100286.88;;;3.57;100.00
11710;BME280;5911;51.036;6.972;2022-12-11T03:22:18;100284.84;;;3.62;100.00
11710;BME280;5911;51.036;6.972;2022-12-11T03:24:50;100285.53;;;3.66;100.00
11710;BME280;5911;51.036;6.972;2022-12-11T03:27:26;100287.00;;;3.70;100.00
11710;BME280;5911;51.036;6.972;2022-12-11T03:29:57;100292.38;;;3.67;100.00
11710;BME280;5911;51.036;6.972;2022-12-11T03:32:29;100289.88;;;3.65;100.00
11710;BME280;5911;51.036;6.972;2022-12-11T03:35:04;100294.25;;;3.65;100.00
11710;BME280;5911;51.036;6.972;2022-12-11T03:37:35;100302.81;;;3.67;100.00
11710;BME280;5911;51.036;6.972;2022-12-11T03:40:08;100300.97;;;3.69;100.00
11710;BME280;5911;51.036;6.972;2022-12-11T03:42:38;100299.09;;;3.71;100.00
11710;BME280;5911;51.036;6.972;2022-12-11T03:45:08;100297.81;;;3.64;100.00
11710;BME280;5911;51.036;6.972;2022-12-11T03:47:38;100299.47;;;3.65;100.00
11710;BME280;5911;51.036;6.972;2022-12-11T03:50:10;100294.25;;;3.65;100.00
11710;BME280;5911;51.036;6.972;2022-12-11T03:52:40;100287.91;;;3.69;100.00
11710;BME280;5911;51.036;6.972;2022-12-11T03:55:13;100292.97;;;3.72;100.00
11710;BME280;5911;51.036;6.972;2022-12-11T03:57:41;100293.72;;;3.74;100.00
11710;BME280;5911;51.036;6.972;2022-12-11T04:00:13;100285.13;;;3.72;100.00
11710;BME280;5911;51.036;6.972;2022-12-11T04:02:43;100296.03;;;3.64;100.00
11710;BME280;5911;51.036;6.972;2022-12-11T04:05:38;100293.13;;;3.69;100.00
11710;BME280;5911;51.036;6.972;2022-12-11T04:08:06;100281.56;;;3.59;100.00
11710;BME280;5911;51.036;6.972;2022-12-11T04:10:34;100276.34;;;3.59;100.00
11710;BME280;5911;51.036;6.972;2022-12-11T04:13:02;100281.78;;;3.70;100.00
11710;BME280;5911;51.036;6.972;2022-12-11T04:15:31;100276.72;;;3.67;100.00
11710;BME280;5911;51.036;6.972;2022-12-11T04:17:58;100279.25;;;3.68;100.00
11710;BME280;5911;51.036;6.972;2022-12-11T04:20:43;100278.25;;;3.71;100.00
11710;BME280;5911;51.036;6.972;2022-12-11T04:23:29;100277.31;;;3.72;100.00
11710;BME280;5911;51.036;6.972;2022-12-11T04:26:17;100276.00;;;3.65;100.00
11710;BME280;5911;51.036;6.972;2022-12-11T04:28:46;100274.25;;;3.65;100.00
11710;BME280;5911;51.036;6.972;2022-12-11T04:31:17;100269.75;;;3.67;100.00
11710;BME280;5911;51.036;6.972;2022-12-11T04:33:46;100271.53;;;3.67;100.00
11710;BME280;5911;51.036;6.972;2022-12-11T04:36:15;100266.13;;;3.70;100.00
11710;BME280;5911;51.036;6.972;2022-12-11T04:38:43;100269.50;;;3.72;100.00
11710;BME280;5911;51.036;6.972;2022-12-11T04:41:12;100265.13;;;3.72;100.00
11710;BME280;5911;51.036;6.972;2022-12-11T04:43:40;100262.59;;;3.71;100.00
11710;BME280;5911;51.036;6.972;2022-12-11T04:46:12;100262.41;;;3.74;100.00
11710;BME280;5911;51.036;6.972;2022-12-11T04:48:42;100274.34;;;3.78;100.00
11710;BME280;5911;51.036;6.972;2022-12-11T04:51:10;100261.22;;;3.79;100.00
11710;BME280;5911;51.036;6.972;2022-12-11T04:53:38;100263.94;;;3.78;100.00
11710;BME280;5911;51.036;6.972;2022-12-11T04:56:08;100262.50;;;3.72;100.00
11710;BME280;5911;51.036;6.972;2022-12-11T04:58:36;100265.13;;;3.72;100.00
11710;BME280;5911;51.036;6.972;2022-12-11T05:01:06;100261.09;;;3.67;100.00
11710;BME280;5911;51.036;6.972;2022-12-11T05:03:34;100261.84;;;3.69;100.00
11710;BME280;5911;51.036;6.972;2022-12-11T05:06:03;100255.06;;;3.66;100.00
11710;BME280;5911;51.036;6.972;2022-12-11T05:08:33;100249.56;;;3.71;100.00
11710;BME280;5911;51.036;6.972;2022-12-11T05:11:03;100253.84;;;3.72;100.00
11710;BME280;5911;51.036;6.972;2022-12-11T05:13:32;100251.06;;;3.75;100.00
11710;BME280;5911;51.036;6.972;2022-12-11T05:16:02;100249.38;;;3.74;100.00
11710;BME280;5911;51.036;6.972;2022-12-11T05:18:30;100252.56;;;3.79;100.00
11710;BME280;5911;51.036;6.972;2022-12-11T05:20:59;100254.31;;;3.78;100.00
11710;BME280;5911;51.036;6.972;2022-12-11T05:23:29;100251.16;;;3.73;100.00
11710;BME280;5911;51.036;6.972;2022-12-11T05:25:58;100252.34;;;3.68;100.00
11710;BME280;5911;51.036;6.972;2022-12-11T05:28:28;100259.97;;;3.71;100.00
11710;BME280;5911;51.036;6.972;2022-12-11T05:30:56;100252.66;;;3.77;100.00
11710;BME280;5911;51.036;6.972;2022-12-11T05:33:24;100249.28;;;3.75;100.00
11710;BME280;5911;51.036;6.972;2022-12-11T05:35:52;100250.88;;;3.78;100.00
11710;BME280;5911;51.036;6.972;2022-12-11T05:38:20;100243.06;;;3.78;100.00
11710;BME280;5911;51.036;6.972;2022-12-11T05:40:56;100246.34;;;3.81;100.00
11710;BME280;5911;51.036;6.972;2022-12-11T05:43:25;100242.03;;;3.80;100.00
11710;BME280;5911;51.036;6.972;2022-12-11T05:45:54;100240.44;;;3.78;100.00
11710;BME280;5911;51.036;6.972;2022-12-11T05:48:22;100235.91;;;3.81;100.00
11710;BME280;5911;51.036;6.972;2022-12-11T05:50:56;100239.53;;;3.79;100.00
11710;BME280;5911;51.036;6.972;2022-12-11T05:53:24;100234.47;;;3.76;100.00
11710;BME280;5911;51.036;6.972;2022-12-11T05:55:52;100237.44;;;3.70;100.00
11710;BME280;5911;51.036;6.972;2022-12-11T05:58:21;100236.69;;;3.68;100.00
11710;BME280;5911;51.036;6.972;2022-12-11T06:00:49;100238.38;;;3.69;100.00
11710;BME280;5911;51.036;6.972;2022-12-11T06:03:17;100238.94;;;3.74;100.00
11710;BME280;5911;51.036;6.972;2022-12-11T06:05:45;100236.34;;;3.74;100.00
11710;BME280;5911;51.036;6.972;2022-12-11T06:08:13;100236.69;;;3.68;100.00
11710;BME280;5911;51.036;6.972;2022-12-11T06:10:44;100243.59;;;3.69;100.00
11710;BME280;5911;51.036;6.972;2022-12-11T06:13:12;100239.88;;;3.73;100.00
11710;BME280;5911;51.036;6.972;2022-12-11T06:15:41;100239.88;;;3.73;100.00
11710;BME280;5911;51.036;6.972;2022-12-11T06:18:09;100234.47;;;3.76;100.00
11710;BME280;5911;51.036;6.972;2022-12-11T06:20:37;100234.47;;;3.76;100.00
11710;BME280;5911;51.036;6.972;2022-12-11T06:23:05;100230.00;;;3.78;100.00
11710;BME280;5911;51.036;6.972;2022-12-11T06:25:33;100240.44;;;3.78;100.00
11710;BME280;5911;51.036;6.972;2022-12-11T06:28:01;100238.03;;;3.75;100.00
11710;BME280;5911;51.036;6.972;2022-12-11T06:30:28;100226.91;;;3.71;100.00
11710;BME280;5911;51.036;6.972;2022-12-11T06:33:06;100238.03;;;3.75;100.00
11710;BME280;5911;51.036;6.972;2022-12-11T06:35:34;100235.50;;;3.73;100.00
11710;BME280;5911;51.036;6.972;2022-12-11T06:38:08;100234.47;;;3.76;100.00
11710;BME280;5911;51.036;6.972;2022-12-11T06:40:36;100198.59;;;3.51;100.00
11710;BME280;5911;51.036;6.972;2022-12-11T06:43:04;100229.25;;;3.76;100.00
11710;BME280;5911;51.036;6.972;2022-12-11T06:45:33;100233.56;;;3.77;100.00
11710;BME280;5911;51.036;6.972;2022-12-11T06:48:01;100235.16;;;3.79;100.00
11710;BME280;5911;51.036;6.972;2022-12-11T06:50:30;100234.94;;;3.82;100.00
11710;BME280;5911;51.036;6.972;2022-12-11T06:52:58;100229.53;;;3.85;100.00
11710;BME280;5911;51.036;6.972;2022-12-11T06:55:26;100235.41;;;3.89;100.00
11710;BME280;5911;51.036;6.972;2022-12-11T06:57:54;100238.03;;;3.89;100.00
11710;BME280;5911;51.036;6.972;2022-12-11T07:00:22;100232.91;;;3.87;100.00
11710;BME280;5911;51.036;6.972;2022-12-11T07:02:50;100235.78;;;3.83;100.00
11710;BME280;5911;51.036;6.972;2022-12-11T07:05:21;100240.28;;;3.81;100.00
11710;BME280;5911;51.036;6.972;2022-12-11T07:07:52;100242.88;;;3.81;100.00
11710;BME280;5911;51.036;6.972;2022-12-11T07:10:20;100245.75;;;3.76;100.00
11710;BME280;5911;51.036;6.972;2022-12-11T07:12:51;100244.75;;;3.79;100.00
11710;BME280;5911;51.036;6.972;2022-12-11T07:15:20;100246.59;;;3.77;100.00
11710;BME280;5911;51.036;6.972;2022-12-11T07:17:47;100248.28;;;3.78;100.00
11710;BME280;5911;51.036;6.972;2022-12-11T07:20:16;100247.25;;;3.80;100.00
11710;BME280;5911;51.036;6.972;2022-12-11T07:22:43;100251.06;;;3.75;100.00
11710;BME280;5911;51.036;6.972;2022-12-11T07:25:14;100257.19;;;3.74;100.00
11710;BME280;5911;51.036;6.972;2022-12-11T07:27:41;100256.09;;;3.78;100.00
11710;BME280;5911;51.036;6.972;2022-12-11T07:30:10;100249.63;;;3.69;100.00
11710;BME280;5911;51.036;6.972;2022-12-11T07:32:38;100254.41;;;3.77;100.00
11710;BME280;5911;51.036;6.972;2022-12-11T07:35:07;100261.56;;;3.73;100.00
11710;BME280;5911;51.036;6.972;2022-12-11T07:37:35;100252.00;;;3.74;100.00
11710;BME280;5911;51.036;6.972;2022-12-11T07:40:04;100256.28;;;3.75;100.00
11710;BME280;5911;51.036;6.972;2022-12-11T07:42:34;100259.72;;;3.75;100.00
11710;BME280;5911;51.036;6.972;2022-12-11T07:45:11;100264.09;;;3.75;100.00
11710;BME280;5911;51.036;6.972;2022-12-11T07:47:41;100252.00;;;3.74;100.00
11710;BME280;5911;51.036;6.972;2022-12-11T07:50:09;100252.16;;;3.71;100.00
11710;BME280;5911;51.036;6.972;2022-12-11T07:52:39;100244.34;;;3.71;100.00
11710;BME280;5911;51.036;6.972;2022-12-11T07:55:08;100241.38;;;3.77;100.00
11710;BME280;5911;51.036;6.972;2022-12-11T07:57:38;100241.19;;;3.80;100.00
11710;BME280;5911;51.036;6.972;2022-12-11T08:00:07;100241.91;;;3.82;100.00
11710;BME280;5911;51.036;6.972;2022-12-11T08:02:38;100249.75;;;3.82;100.00
11710;BME280;5911;51.036;6.972;2022-12-11T08:05:07;100240.91;;;3.84;100.00
11710;BME280;5911;51.036;6.972;2022-12-11T08:07:35;100242.22;;;3.77;100.00
11710;BME280;5911;51.036;6.972;2022-12-11T08:10:04;100239.44;;;3.80;100.00
11710;BME280;5911;51.036;6.972;2022-12-11T08:12:32;100229.63;;;3.70;100.00
11710;BME280;5911;51.036;6.972;2022-12-11T08:15:02;100231.13;;;3.74;100.00
11710;BME280;5911;51.036;6.972;2022-12-11T08:17:30;100235.16;;;3.79;100.00
11710;BME280;5911;51.036;6.972;2022-12-11T08:20:05;100241.91;;;3.82;100.00
11710;BME280;5911;51.036;6.972;2022-12-11T08:22:35;100244.94;;;3.90;100.00
11710;BME280;5911;51.036;6.972;2022-12-11T08:25:03;100253.59;;;3.91;100.00
11710;BME280;5911;51.036;6.972;2022-12-11T08:27:31;100250.72;;;3.81;100.00
11710;BME280;5911;51.036;6.972;2022-12-11T08:29:59;100254.59;;;3.88;100.00
11710;BME280;5911;51.036;6.972;2022-12-11T08:32:28;100246.69;;;3.89;100.00
11710;BME280;5911;51.036;6.972;2022-12-11T08:34:55;100225.56;;;3.80;100.00
11710;BME280;5911;51.036;6.972;2022-12-11T08:37:23;100251.81;;;3.91;100.00
11710;BME280;5911;51.036;6.972;2022-12-11T08:39:51;100252.56;;;3.93;100.00
11710;BME280;5911;51.036;6.972;2022-12-11T08:42:19;100249.13;;;3.93;100.00
11710;BME280;5911;51.036;6.972;2022-12-11T08:44:52;100220.88;;;3.71;100.00
11710;BME280;5911;51.036;6.972;2022-12-11T08:47:20;100244.75;;;3.93;100.00
11710;BME280;5911;51.036;6.972;2022-12-11T08:49:49;100240.06;;;3.98;100.00
11710;BME280;5911;51.036;6.972;2022-12-11T08:52:17;100245.28;;;3.98;100.00
11710;BME280;5911;51.036;6.972;2022-12-11T08:54:45;100233.38;;;3.94;100.00
11710;BME280;5911;51.036;6.972;2022-12-11T08:57:13;100232.25;;;3.98;100.00
11710;BME280;5911;51.036;6.972;2022-12-11T08:59:41;100239.13;;;3.99;100.00
11710;BME280;5911;51.036;6.972;2022-12-11T09:02:10;100230.13;;;3.91;100.00
11710;BME280;5911;51.036;6.972;2022-12-11T09:04:38;100240.06;;;3.98;100.00
11710;BME280;5911;51.036;6.972;2022-12-11T09:07:08;100242.69;;;3.98;100.00
11710;BME280;5911;51.036;6.972;2022-12-11T09:09:36;100245.19;;;4.00;100.00
11710;BME280;5911;51.036;6.972;2022-12-11T09:12:04;100246.97;;;3.99;100.00
11710;BME280;5911;51.036;6.972;2022-12-11T09:14:32;100240.72;;;4.02;100.00
11710;BME280;5911;51.036;6.972;2022-12-11T09:17:00;100242.13;;;3.93;100.00
11710;BME280;5911;51.036;6.972;2022-12-11T09:19:30;100221.81;;;3.84;100.00
11710;BME280;5911;51.036;6.972;2022-12-11T09:21:58;100241.56;;;4.02;100.00
11710;BME280;5911;51.036;6.972;2022-12-11T09:24:28;100253.50;;;4.06;100.00
11710;BME280;5911;51.036;6.972;2022-12-11T09:26:56;100255.38;;;4.04;100.00
11710;BME280;5911;51.036;6.972;2022-12-11T09:29:23;100249.31;;;4.04;100.00
11710;BME280;5911;51.036;6.972;2022-12-11T09:31:51;100247.81;;;4.00;100.00
11710;BME280;5911;51.036;6.972;2022-12-11T09:34:20;100252.41;;;3.96;100.00
11710;BME280;5911;51.036;6.972;2022-12-11T09:36:54;100244.44;;;3.98;100.00
11710;BME280;5911;51.036;6.972;2022-12-11T09:39:22;100254.06;;;3.97;100.00
11710;BME280;5911;51.036;6.972;2022-12-11T09:41:56;100250.81;;;3.94;100.00
11710;BME280;5911;51.036;6.972;2022-12-11T09:44:34;100244.66;;;3.95;100.00
11710;BME280;5911;51.036;6.972;2022-12-11T09:47:15;100243.06;;;3.92;100.00
11710;BME280;5911;51.036;6.972;2022-12-11T09:49:44;100253.25;;;3.97;100.00
11710;BME280;5911;51.036;6.972;2022-12-11T09:52:16;100246.25;;;3.97;100.00
11710;BME280;5911;51.036;6.972;2022-12-11T09:54:48;100245.41;;;3.97;100.00
11710;BME280;5911;51.036;6.972;2022-12-11T09:57:30;100242.06;;;3.95;100.00
11710;BME280;5911;51.036;6.972;2022-12-11T10:00:11;100248.09;;;3.95;100.00
11710;BME280;5911;51.036;6.972;2022-12-11T10:03:06;100250.72;;;3.95;100.00
11710;BME280;5911;51.036;6.972;2022-12-11T10:05:46;100226.28;;;3.82;100.00
11710;BME280;5911;51.036;6.972;2022-12-11T10:08:21;100237.84;;;3.92;100.00
11710;BME280;5911;51.036;6.972;2022-12-11T10:10:58;100240.28;;;3.95;100.00
11710;BME280;5911;51.036;6.972;2022-12-11T10:13:40;100244.00;;;3.91;100.00
11710;BME280;5911;51.036;6.972;2022-12-11T10:16:26;100241.75;;;3.99;100.00
11710;BME280;5911;51.036;6.972;2022-12-11T10:18:58;100239.13;;;3.99;100.00
11710;BME280;5911;51.036;6.972;2022-12-11T10:21:33;100236.34;;;4.02;100.00
11710;BME280;5911;51.036;6.972;2022-12-11T10:24:11;100233.84;;;4.01;100.00
11710;BME280;5911;51.036;6.972;2022-12-11T10:27:13;100228.53;;;4.02;100.00
11710;BME280;5911;51.036;6.972;2022-12-11T10:29:46;100207.81;;;3.99;100.00
11710;BME280;5911;51.036;6.972;2022-12-11T10:32:21;100222.94;;;4.08;100.00
11710;BME280;5911;51.036;6.972;2022-12-11T10:34:55;100220.34;;;4.08;100.00
11710;BME280;5911;51.036;6.972;2022-12-11T10:37:25;100213.25;;;4.10;100.00
11710;BME280;5911;51.036;6.972;2022-12-11T10:39:53;100213.44;;;4.07;100.00
11710;BME280;5911;51.036;6.972;2022-12-11T10:42:21;100201.50;;;4.03;100.00
11710;BME280;5911;51.036;6.972;2022-12-11T10:44:59;100210.81;;;4.07;100.00
11710;BME280;5911;51.036;6.972;2022-12-11T10:47:27;100203.00;;;4.07;100.00
11710;BME280;5911;51.036;6.972;2022-12-11T10:49:56;100204.03;;;4.05;100.00
11710;BME280;5911;51.036;6.972;2022-12-11T10:52:27;100199.63;;;4.05;100.00
11710;BME280;5911;51.036;6.972;2022-12-11T10:54:59;100197.69;;;4.09;100.00
11710;BME280;5911;51.036;6.972;2022-12-11T10:57:31;100189.19;;;4.05;100.00
11710;BME280;5911;51.036;6.972;2022-12-11T11:00:04;100206.25;;;4.11;100.00
11710;BME280;5911;51.036;6.972;2022-12-11T11:02:34;100195.72;;;4.12;100.00
11710;BME280;5911;51.036;6.972;2022-12-11T11:05:12;100199.28;;;4.11;100.00
11710;BME280;5911;51.036;6.972;2022-12-11T11:07:40;100195.91;;;4.09;100.00
11710;BME280;5911;51.036;6.972;2022-12-11T11:10:15;100188.44;;;4.17;100.00
11710;BME280;5911;51.036;6.972;2022-12-11T11:12:45;100180.50;;;4.19;100.00
11710;BME280;5911;51.036;6.972;2022-12-11T11:15:19;100177.63;;;4.23;100.00
11710;BME280;5911;51.036;6.972;2022-12-11T11:17:50;100178.56;;;4.22;100.00
11710;BME280;5911;51.036;6.972;2022-12-11T11:20:26;100180.16;;;4.25;100.00
11710;BME280;5911;51.036;6.972;2022-12-11T11:22:56;100176.69;;;4.24;100.00
11710;BME280;5911;51.036;6.972;2022-12-11T11:25:30;100181.06;;;4.24;100.00
11710;BME280;5911;51.036;6.972;2022-12-11T11:28:00;100188.06;;;4.23;100.00
11710;BME280;5911;51.036;6.972;2022-12-11T11:30:32;100187.75;;;4.28;100.00
11710;BME280;5911;51.036;6.972;2022-12-11T11:33:03;100177.63;;;4.23;100.00
11710;BME280;5911;51.036;6.972;2022-12-11T11:35:32;100158.97;;;4.15;100.00
11710;BME280;5911;51.036;6.972;2022-12-11T11:38:03;100174.72;;;4.28;100.00
11710;BME280;5911;51.036;6.972;2022-12-11T11:40:36;100165.75;;;4.32;100.00
11710;BME280;5911;51.036;6.972;2022-12-11T11:43:14;100170.97;;;4.32;100.00
11710;BME280;5911;51.036;6.972;2022-12-11T11:45:51;100165.56;;;4.35;100.00
11710;BME280;5911;51.036;6.972;2022-12-11T11:48:37;100155.41;;;4.31;100.00
11710;BME280;5911;51.036;6.972;2022-12-11T11:51:13;100161.19;;;4.36;100.00
11710;BME280;5911;51.036;6.972;2022-12-11T11:53:46;100155.13;;;4.35;100.00
11710;BME280;5911;51.036;6.972;2022-12-11T11:56:26;100157.84;;;4.34;100.00
11710;BME280;5911;51.036;6.972;2022-12-11T11:59:00;100155.97;;;4.36;100.00
11710;BME280;5911;51.036;6.972;2022-12-11T12:01:31;100155.13;;;4.35;100.00
11710;BME280;5911;51.036;6.972;2022-12-11T12:04:00;100154.66;;;4.29;100.00
11710;BME280;5911;51.036;6.972;2022-12-11T12:06:37;100162.13;;;4.35;100.00
11710;BME280;5911;51.036;6.972;2022-12-11T12:09:24;100157.84;;;4.34;100.00
11710;BME280;5911;51.036;6.972;2022-12-11T12:12:02;100151.97;;;4.30;100.00
11710;BME280;5911;51.036;6.972;2022-12-11T12:14:39;100156.25;;;4.31;100.00
11710;BME280;5911;51.036;6.972;2022-12-11T12:17:25;100156.34;;;4.30;100.00
11710;BME280;5911;51.036;6.972;2022-12-11T12:20:06;100152.78;;;4.31;100.00
11710;BME280;5911;51.036;6.972;2022-12-11T12:22:52;100151.03;;;4.31;100.00
11710;BME280;5911;51.036;6.972;2022-12-11T12:25:27;100150.00;;;4.34;100.00
11710;BME280;5911;51.036;6.972;2022-12-11T12:28:06;100150.94;;;4.33;100.00
11710;BME280;5911;51.036;6.972;2022-12-11T12:30:45;100148.81;;;4.25;100.00
11710;BME280;5911;51.036;6.972;2022-12-11T12:33:24;100146.00;;;4.28;100.00
11710;BME280;5911;51.036;6.972;2022-12-11T12:36:02;100155.72;;;4.26;100.00
11710;BME280;5911;51.036;6.972;2022-12-11T12:38:40;100144.44;;;4.26;100.00
11710;BME280;5911;51.036;6.972;2022-12-11T12:41:16;100147.78;;;4.28;100.00
11710;BME280;5911;51.036;6.972;2022-12-11T12:44:09;100144.44;;;4.26;100.00
11710;BME280;5911;51.036;6.972;2022-12-11T12:46:53;100136.28;;;4.30;100.00
11710;BME280;5911;51.036;6.972;2022-12-11T12:49:39;100132.66;;;4.33;100.00
11710;BME280;5911;51.036;6.972;2022-12-11T12:52:14;100128.19;;;4.35;100.00
11710;BME280;5911;51.036;6.972;2022-12-11T12:54:45;100122.78;;;4.38;100.00
11710;BME280;5911;51.036;6.972;2022-12-11T12:57:35;100123.69;;;4.37;100.00
11710;BME280;5911;51.036;6.972;2022-12-11T13:00:06;100116.53;;;4.40;100.00
11710;BME280;5911;51.036;6.972;2022-12-11T13:02:46;100117.13;;;4.44;100.00
11710;BME280;5911;51.036;6.972;2022-12-11T13:05:21;100116.94;;;4.47;100.00
11710;BME280;5911;51.036;6.972;2022-12-11T13:07:52;100117.59;;;4.50;100.00
11710;BME280;5911;51.036;6.972;2022-12-11T13:10:24;100118.25;;;4.54;100.00
11710;BME280;5911;51.036;6.972;2022-12-11T13:12:53;100123.28;;;4.57;100.00
11710;BME280;5911;51.036;6.972;2022-12-11T13:15:31;100126.06;;;4.54;100.00
11710;BME280;5911;51.036;6.972;2022-12-11T13:18:00;100121.88;;;4.51;100.00
11710;BME280;5911;51.036;6.972;2022-12-11T13:20:31;100121.78;;;4.53;100.00
11710;BME280;5911;51.036;6.972;2022-12-11T13:23:19;100119.81;;;4.56;100.00
11710;BME280;5911;51.036;6.972;2022-12-11T13:25:53;100120.94;;;4.52;100.00